createdAt,value
2019-02-10T00:00:11.579Z,1000.71
2019-02-10T00:01:11.605Z,1000.70
2019-02-10T00:02:11.575Z,1000.67
2019-02-10T00:03:11.589Z,1000.67
2019-02-10T00:04:11.567Z,1000.67
2019-02-10T00:05:11.548Z,1000.66
2019-02-10T00:06:11.509Z,1000.66
2019-02-10T00:07:11.567Z,1000.63
2019-02-10T00:08:11.535Z,1000.61
2019-02-10T00:09:11.503Z,1000.55
2019-02-10T00:10:11.468Z,1000.51
2019-02-10T00:11:11.470Z,1000.47
2019-02-10T00:12:11.513Z,1000.46
2019-02-10T00:13:11.444Z,1000.48
2019-02-10T00:14:11.429Z,1000.43
2019-02-10T00:15:11.409Z,1000.43
2019-02-10T00:16:11.398Z,1000.38
2019-02-10T00:17:11.398Z,1000.37
2019-02-10T00:18:11.375Z,1000.39
2019-02-10T00:19:11.388Z,1000.34
2019-02-10T00:20:11.367Z,1000.31
2019-02-10T00:21:11.374Z,1000.26
2019-02-10T00:22:11.364Z,1000.25
2019-02-10T00:23:11.326Z,1000.25
2019-02-10T00:24:11.318Z,1000.15
2019-02-10T00:25:11.393Z,1000.18
2019-02-10T00:26:11.350Z,1000.14
2019-02-10T00:27:11.275Z,1000.17
2019-02-10T00:28:11.271Z,1000.16
2019-02-10T00:29:11.255Z,1000.17
2019-02-10T00:30:11.351Z,1000.16
2019-02-10T00:31:11.248Z,1000.13
2019-02-10T00:32:11.222Z,1000.10
2019-02-10T00:33:11.252Z,1000.06
2019-02-10T00:34:11.203Z,1000.03
2019-02-10T00:35:11.188Z,999.96
2019-02-10T00:36:11.191Z,1000.01
2019-02-10T00:37:11.160Z,999.95
2019-02-10T00:38:11.176Z,999.90
2019-02-10T00:39:11.140Z,999.93
2019-02-10T00:40:11.128Z,999.90
2019-02-10T00:41:11.122Z,999.88
2019-02-10T00:42:11.113Z,999.87
2019-02-10T00:43:11.137Z,999.85
2019-02-10T00:44:11.088Z,999.84
2019-02-10T00:45:11.075Z,999.79
2019-02-10T00:46:11.068Z,999.77
2019-02-10T00:47:11.076Z,999.73
2019-02-10T00:48:11.055Z,999.70
2019-02-10T00:49:11.025Z,999.64
2019-02-10T00:50:11.046Z,999.56
2019-02-10T00:51:11.003Z,999.61
2019-02-10T00:52:11.003Z,999.57
2019-02-10T00:53:11.013Z,999.60
2019-02-10T00:54:10.969Z,999.68
2019-02-10T00:55:11.051Z,999.68
2019-02-10T00:56:10.970Z,999.60
2019-02-10T00:57:10.952Z,999.56
2019-02-10T00:58:10.940Z,999.52
2019-02-10T00:59:10.922Z,999.54
2019-02-10T01:00:10.916Z,999.41
2019-02-10T01:01:10.890Z,999.36
2019-02-10T01:02:10.904Z,999.32
2019-02-10T01:03:10.919Z,999.24
2019-02-10T01:04:10.875Z,999.26
2019-02-10T01:05:10.857Z,999.26
2019-02-10T01:06:10.841Z,999.23
2019-02-10T01:07:10.836Z,999.25
2019-02-10T01:08:10.824Z,999.14
2019-02-10T01:09:10.848Z,999.07
2019-02-10T01:10:10.790Z,999.01
2019-02-10T01:11:10.781Z,999.07
2019-02-10T01:12:10.777Z,999.12
2019-02-10T01:13:10.773Z,999.11
2019-02-10T01:14:10.785Z,999.06
2019-02-10T01:15:10.786Z,998.97
2019-02-10T01:16:10.728Z,998.95
2019-02-10T01:17:10.709Z,998.92
2019-02-10T01:18:10.711Z,998.88
2019-02-10T01:19:10.695Z,998.93
2019-02-10T01:20:10.675Z,998.89
2019-02-10T01:21:10.665Z,998.82
2019-02-10T01:22:10.671Z,998.83
2019-02-10T01:23:10.670Z,998.82
2019-02-10T01:24:10.633Z,998.73
2019-02-10T01:25:10.689Z,998.66
2019-02-10T01:26:10.643Z,998.67
2019-02-10T01:27:10.699Z,998.62
2019-02-10T01:28:10.600Z,998.60
2019-02-10T01:29:10.577Z,998.60
2019-02-10T01:30:10.577Z,998.57
2019-02-10T01:31:10.570Z,998.49
2019-02-10T01:32:10.545Z,998.48
2019-02-10T01:33:10.563Z,998.41
2019-02-10T01:34:10.539Z,998.34
2019-02-10T01:35:10.528Z,998.30
2019-02-10T01:36:10.527Z,998.34
2019-02-10T01:37:10.492Z,998.37
2019-02-10T01:38:10.509Z,998.32
2019-02-10T01:39:10.520Z,998.31
2019-02-10T01:40:10.451Z,998.31
2019-02-10T01:41:10.443Z,998.17
2019-02-10T01:42:10.440Z,998.16
2019-02-10T01:43:10.421Z,998.14
2019-02-10T01:44:10.415Z,998.13
2019-02-10T01:45:10.394Z,998.09
2019-02-10T01:46:10.392Z,998.07
2019-02-10T01:47:10.373Z,997.96
2019-02-10T01:48:10.380Z,997.90
2019-02-10T01:49:10.377Z,997.86
2019-02-10T01:50:10.375Z,997.82
2019-02-10T01:51:10.350Z,997.81
2019-02-10T01:52:10.343Z,997.77
2019-02-10T01:53:10.343Z,997.75
2019-02-10T01:54:10.348Z,997.72
2019-02-10T01:55:15.180Z,997.68
2019-02-10T01:56:10.367Z,997.64
2019-02-10T01:57:10.300Z,997.56
2019-02-10T01:58:10.267Z,997.56
2019-02-10T01:59:10.476Z,997.53
2019-02-10T02:00:10.289Z,997.47
2019-02-10T02:01:10.219Z,997.40
2019-02-10T02:02:10.231Z,997.33
2019-02-10T02:03:10.199Z,997.30
2019-02-10T02:04:10.193Z,997.29
2019-02-10T02:05:10.190Z,997.30
2019-02-10T02:06:10.163Z,997.29
2019-02-10T02:07:10.147Z,997.24
2019-02-10T02:08:10.136Z,997.21
2019-02-10T02:09:10.140Z,997.22
2019-02-10T02:10:10.121Z,997.15
2019-02-10T02:11:10.125Z,997.10
2019-02-10T02:12:10.138Z,997.06
2019-02-10T02:13:10.082Z,996.95
2019-02-10T02:14:10.097Z,996.95
2019-02-10T02:15:10.105Z,996.98
2019-02-10T02:16:10.052Z,996.96
2019-02-10T02:17:10.042Z,996.95
2019-02-10T02:18:10.041Z,996.86
2019-02-10T02:19:10.087Z,996.90
2019-02-10T02:20:10.017Z,996.80
2019-02-10T02:21:10.029Z,996.82
2019-02-10T02:22:09.983Z,996.75
2019-02-10T02:23:09.969Z,996.75
2019-02-10T02:24:09.988Z,996.77
2019-02-10T02:25:10.078Z,996.75
2019-02-10T02:26:09.941Z,996.76
2019-02-10T02:27:09.934Z,996.70
2019-02-10T02:28:09.926Z,996.70
2019-02-10T02:29:09.910Z,996.65
2019-02-10T02:30:09.930Z,996.67
2019-02-10T02:31:09.905Z,996.60
2019-02-10T02:32:09.882Z,996.52
2019-02-10T02:33:09.896Z,996.55
2019-02-10T02:34:09.859Z,996.57
2019-02-10T02:35:09.915Z,996.55
2019-02-10T02:36:09.818Z,996.50
2019-02-10T02:37:09.807Z,996.47
2019-02-10T02:38:09.805Z,996.50
2019-02-10T02:39:09.815Z,996.44
2019-02-10T02:40:09.821Z,996.46
2019-02-10T02:41:09.768Z,996.45
2019-02-10T02:42:09.752Z,996.36
2019-02-10T02:43:09.739Z,996.36
2019-02-10T02:44:09.781Z,996.30
2019-02-10T02:45:09.777Z,996.24
2019-02-10T02:46:09.707Z,996.15
2019-02-10T02:47:09.694Z,996.11
2019-02-10T02:48:09.690Z,995.99
2019-02-10T02:49:09.680Z,995.94
2019-02-10T02:50:09.717Z,995.92
2019-02-10T02:51:09.687Z,995.84
2019-02-10T02:52:09.651Z,995.89
2019-02-10T02:53:09.632Z,995.81
2019-02-10T02:54:09.619Z,995.81
2019-02-10T02:55:09.699Z,995.66
2019-02-10T02:56:09.594Z,995.65
2019-02-10T02:57:09.640Z,995.63
2019-02-10T02:58:09.570Z,995.61
2019-02-10T02:59:09.563Z,995.54
2019-02-10T03:00:09.558Z,995.51
2019-02-10T03:01:09.545Z,995.47
2019-02-10T03:02:09.528Z,995.50
2019-02-10T03:03:09.559Z,995.40
2019-02-10T03:04:09.506Z,995.50
2019-02-10T03:05:09.522Z,995.46
2019-02-10T03:06:09.507Z,995.43
2019-02-10T03:07:17.814Z,995.49
2019-02-10T03:08:10.468Z,995.36
2019-02-10T03:09:09.470Z,995.31
2019-02-10T03:10:09.486Z,995.29
2019-02-10T03:11:09.451Z,995.30
2019-02-10T03:12:09.422Z,995.26
2019-02-10T03:13:09.410Z,995.21
2019-02-10T03:14:09.399Z,995.23
2019-02-10T03:15:09.420Z,995.18
2019-02-10T03:16:09.375Z,995.12
2019-02-10T03:17:09.357Z,994.98
2019-02-10T03:18:09.362Z,994.94
2019-02-10T03:19:09.365Z,994.98
2019-02-10T03:20:09.333Z,994.97
2019-02-10T03:21:09.330Z,994.96
2019-02-10T03:22:09.318Z,994.86
2019-02-10T03:23:09.311Z,994.80
2019-02-10T03:24:09.288Z,994.83
2019-02-10T03:25:09.342Z,994.77
2019-02-10T03:26:09.277Z,994.74
2019-02-10T03:27:09.253Z,994.75
2019-02-10T03:28:09.237Z,994.67
2019-02-10T03:29:09.222Z,994.65
2019-02-10T03:30:09.241Z,994.62
2019-02-10T03:31:09.212Z,994.58
2019-02-10T03:32:09.221Z,994.53
2019-02-10T03:33:09.183Z,994.56
2019-02-10T03:34:09.173Z,994.46
2019-02-10T03:35:09.160Z,994.46
2019-02-10T03:36:09.154Z,994.39
2019-02-10T03:37:09.140Z,994.39
2019-02-10T03:38:09.125Z,994.35
2019-02-10T03:39:09.141Z,994.31
2019-02-10T03:40:09.111Z,994.22
2019-02-10T03:41:09.125Z,994.25
2019-02-10T03:42:09.084Z,994.19
2019-02-10T03:43:09.063Z,994.16
2019-02-10T03:44:09.061Z,994.13
2019-02-10T03:45:09.067Z,994.08
2019-02-10T03:46:09.056Z,994.06
2019-02-10T03:47:09.037Z,994.03
2019-02-10T03:48:09.006Z,993.98
2019-02-10T03:49:09.014Z,993.97
2019-02-10T03:50:08.988Z,993.90
2019-02-10T03:51:09.018Z,993.94
2019-02-10T03:52:08.975Z,993.87
2019-02-10T03:53:08.952Z,993.83
2019-02-10T03:54:08.977Z,993.81
2019-02-10T03:55:08.985Z,993.78
2019-02-10T03:56:08.933Z,993.77
2019-02-10T03:57:08.922Z,993.71
2019-02-10T03:58:08.895Z,993.68
2019-02-10T03:59:08.887Z,993.63
2019-02-10T04:00:08.872Z,993.61
2019-02-10T04:01:08.916Z,993.57
2019-02-10T04:02:08.853Z,993.53
2019-02-10T04:03:08.896Z,993.47
2019-02-10T04:04:08.957Z,993.48
2019-02-10T04:05:08.835Z,993.41
2019-02-10T04:06:08.823Z,993.34
2019-02-10T04:07:08.796Z,993.31
2019-02-10T04:08:08.785Z,993.32
2019-02-10T04:09:08.778Z,993.31
2019-02-10T04:10:08.771Z,993.23
2019-02-10T04:11:08.770Z,993.19
2019-02-10T04:12:08.755Z,993.21
2019-02-10T04:13:08.742Z,993.12
2019-02-10T04:14:08.743Z,993.12
2019-02-10T04:15:08.705Z,993.08
2019-02-10T04:16:08.716Z,993.08
2019-02-10T04:17:08.680Z,993.07
2019-02-10T04:18:08.683Z,993.07
2019-02-10T04:19:08.660Z,992.97
2019-02-10T04:20:08.679Z,993.01
2019-02-10T04:21:08.653Z,992.95
2019-02-10T04:22:08.657Z,992.92
2019-02-10T04:23:08.620Z,992.91
2019-02-10T04:24:08.602Z,992.82
2019-02-10T04:25:13.630Z,992.77
2019-02-10T04:26:08.583Z,992.80
2019-02-10T04:27:08.604Z,992.72
2019-02-10T04:28:08.581Z,992.73
2019-02-10T04:29:08.548Z,992.63
2019-02-10T04:30:09.296Z,992.62
2019-02-10T04:31:08.537Z,992.54
2019-02-10T04:32:08.518Z,992.49
2019-02-10T04:33:08.519Z,992.53
2019-02-10T04:34:08.502Z,992.43
2019-02-10T04:35:08.500Z,992.37
2019-02-10T04:36:08.479Z,992.33
2019-02-10T04:37:08.468Z,992.31
2019-02-10T04:38:08.461Z,992.27
2019-02-10T04:39:08.466Z,992.21
2019-02-10T04:40:08.426Z,992.23
2019-02-10T04:41:08.410Z,992.22
2019-02-10T04:42:08.417Z,992.16
2019-02-10T04:43:08.403Z,992.09
2019-02-10T04:44:08.394Z,992.05
2019-02-10T04:45:08.385Z,991.94
2019-02-10T04:46:08.390Z,991.97
2019-02-10T04:47:08.374Z,991.90
2019-02-10T04:48:08.341Z,991.90
2019-02-10T04:49:08.381Z,991.86
2019-02-10T04:50:08.336Z,991.84
2019-02-10T04:51:08.313Z,991.80
2019-02-10T04:52:08.299Z,991.75
2019-02-10T04:53:08.306Z,991.73
2019-02-10T04:54:08.271Z,991.69
2019-02-10T04:55:08.360Z,991.66
2019-02-10T04:56:08.275Z,991.62
2019-02-10T04:57:08.249Z,991.60
2019-02-10T04:58:08.242Z,991.55
2019-02-10T04:59:08.213Z,991.48
2019-02-10T05:00:08.200Z,991.44
2019-02-10T05:01:08.189Z,991.41
2019-02-10T05:02:08.185Z,991.33
2019-02-10T05:03:08.178Z,991.34
2019-02-10T05:04:08.156Z,991.31
2019-02-10T05:05:08.142Z,991.21
2019-02-10T05:06:08.133Z,991.18
2019-02-10T05:07:08.149Z,991.16
2019-02-10T05:08:08.124Z,991.16
2019-02-10T05:09:08.116Z,991.10
2019-02-10T05:10:08.106Z,991.07
2019-02-10T05:11:08.078Z,991.08
2019-02-10T05:12:08.064Z,990.99
2019-02-10T05:13:08.129Z,990.99
2019-02-10T05:14:08.049Z,990.94
2019-02-10T05:15:08.058Z,990.90
2019-02-10T05:16:08.043Z,990.92
2019-02-10T05:17:08.010Z,990.80
2019-02-10T05:18:08.050Z,990.80
2019-02-10T05:19:07.991Z,990.83
2019-02-10T05:20:07.980Z,990.74
2019-02-10T05:21:07.972Z,990.70
2019-02-10T05:22:07.973Z,990.71
2019-02-10T05:23:07.960Z,990.61
2019-02-10T05:24:07.932Z,990.58
2019-02-10T05:25:08.003Z,990.51
2019-02-10T05:26:07.910Z,990.43
2019-02-10T05:27:07.920Z,990.45
2019-02-10T05:28:07.949Z,990.42
2019-02-10T05:29:07.899Z,990.35
2019-02-10T05:30:07.872Z,990.33
2019-02-10T05:31:07.851Z,990.26
2019-02-10T05:32:07.852Z,990.21
2019-02-10T05:33:07.877Z,990.20
2019-02-10T05:34:07.825Z,990.19
2019-02-10T05:35:07.811Z,990.14
2019-02-10T05:36:07.819Z,990.08
2019-02-10T05:37:07.794Z,990.05
2019-02-10T05:38:07.806Z,989.93
2019-02-10T05:39:07.798Z,989.94
2019-02-10T05:40:07.760Z,989.93
2019-02-10T05:41:07.759Z,989.94
2019-02-10T05:42:07.793Z,989.85
2019-02-10T05:43:07.827Z,989.83
2019-02-10T05:44:07.767Z,989.78
2019-02-10T05:45:07.693Z,989.79
2019-02-10T05:46:07.691Z,989.75
2019-02-10T05:47:07.675Z,989.73
2019-02-10T05:48:07.690Z,989.64
2019-02-10T05:49:07.674Z,989.66
2019-02-10T05:50:07.643Z,989.68
2019-02-10T05:51:07.641Z,989.62
2019-02-10T05:52:07.613Z,989.63
2019-02-10T05:53:07.616Z,989.60
2019-02-10T05:54:07.612Z,989.56
2019-02-10T05:55:07.672Z,989.51
2019-02-10T05:56:07.571Z,989.49
2019-02-10T05:57:07.573Z,989.48
2019-02-10T05:58:07.568Z,989.48
2019-02-10T05:59:07.548Z,989.40
2019-02-10T06:00:07.528Z,989.43
2019-02-10T06:01:07.544Z,989.39
2019-02-10T06:02:07.503Z,989.39
2019-02-10T06:03:07.492Z,989.26
2019-02-10T06:04:07.491Z,989.29
2019-02-10T06:05:07.489Z,989.28
2019-02-10T06:06:07.462Z,989.24
2019-02-10T06:07:07.491Z,989.21
2019-02-10T06:08:12.849Z,989.18
2019-02-10T06:09:08.433Z,989.15
2019-02-10T06:10:07.419Z,989.14
2019-02-10T06:11:07.403Z,989.10
2019-02-10T06:12:07.395Z,989.11
2019-02-10T06:13:07.382Z,989.09
2019-02-10T06:14:07.411Z,989.08
2019-02-10T06:15:07.401Z,989.04
2019-02-10T06:16:07.347Z,988.98
2019-02-10T06:17:07.356Z,988.99
2019-02-10T06:18:07.330Z,988.99
2019-02-10T06:19:07.327Z,988.90
2019-02-10T06:20:07.379Z,988.89
2019-02-10T06:21:07.314Z,988.78
2019-02-10T06:22:07.284Z,988.72
2019-02-10T06:23:07.266Z,988.71
2019-02-10T06:24:07.273Z,988.70
2019-02-10T06:25:07.247Z,988.66
2019-02-10T06:26:07.233Z,988.65
2019-02-10T06:27:07.237Z,988.63
2019-02-10T06:28:07.209Z,988.59
2019-02-10T06:29:07.207Z,988.62
2019-02-10T06:30:07.186Z,988.53
2019-02-10T06:31:07.177Z,988.54
2019-02-10T06:32:07.169Z,988.49
2019-02-10T06:33:07.182Z,988.50
2019-02-10T06:34:07.156Z,988.49
2019-02-10T06:35:07.138Z,988.37
2019-02-10T06:36:07.119Z,988.38
2019-02-10T06:37:07.113Z,988.42
2019-02-10T06:38:07.098Z,988.42
2019-02-10T06:39:07.159Z,988.36
2019-02-10T06:40:07.077Z,988.40
2019-02-10T06:41:07.072Z,988.33
2019-02-10T06:42:07.052Z,988.31
2019-02-10T06:43:07.044Z,988.30
2019-02-10T06:44:07.042Z,988.28
2019-02-10T06:45:07.046Z,988.25
2019-02-10T06:46:07.024Z,988.13
2019-02-10T06:47:06.996Z,988.16
2019-02-10T06:48:06.997Z,988.18
2019-02-10T06:49:06.978Z,988.12
2019-02-10T06:50:06.984Z,988.10
2019-02-10T06:51:06.967Z,988.14
2019-02-10T06:52:06.938Z,988.04
2019-02-10T06:53:06.950Z,988.02
2019-02-10T06:54:06.921Z,987.91
2019-02-10T06:55:07.022Z,988.01
2019-02-10T06:56:06.900Z,987.91
2019-02-10T06:57:06.882Z,987.90
2019-02-10T06:58:06.876Z,987.92
2019-02-10T06:59:06.858Z,987.90
2019-02-10T07:00:06.879Z,987.92
2019-02-10T07:01:06.922Z,987.87
2019-02-10T07:02:06.849Z,987.80
2019-02-10T07:03:06.821Z,987.83
2019-02-10T07:04:06.803Z,987.77
2019-02-10T07:05:06.882Z,987.73
2019-02-10T07:06:06.779Z,987.66
2019-02-10T07:07:06.786Z,987.69
2019-02-10T07:08:06.817Z,987.69
2019-02-10T07:09:06.752Z,987.66
2019-02-10T07:10:06.755Z,987.65
2019-02-10T07:11:06.723Z,987.74
2019-02-10T07:12:06.720Z,987.57
2019-02-10T07:13:06.721Z,987.67
2019-02-10T07:14:06.725Z,987.58
2019-02-10T07:15:06.708Z,987.56
2019-02-10T07:16:06.667Z,987.47
2019-02-10T07:17:06.678Z,987.50
2019-02-10T07:18:06.644Z,987.50
2019-02-10T07:19:06.715Z,987.50
2019-02-10T07:20:06.636Z,987.50
2019-02-10T07:21:06.641Z,987.50
2019-02-10T07:22:06.636Z,987.43
2019-02-10T07:23:06.602Z,987.46
2019-02-10T07:24:06.615Z,987.38
2019-02-10T07:25:06.670Z,987.39
2019-02-10T07:26:06.555Z,987.33
2019-02-10T07:27:06.550Z,987.28
2019-02-10T07:28:07.058Z,987.28
2019-02-10T07:29:06.544Z,987.16
2019-02-10T07:30:06.550Z,987.24
2019-02-10T07:31:06.521Z,987.18
2019-02-10T07:32:06.497Z,987.20
2019-02-10T07:33:06.481Z,987.19
2019-02-10T07:34:06.469Z,987.18
2019-02-10T07:35:06.453Z,987.18
2019-02-10T07:36:06.482Z,987.21
2019-02-10T07:37:06.445Z,987.15
2019-02-10T07:38:06.420Z,987.15
2019-02-10T07:39:06.414Z,987.12
2019-02-10T07:40:06.408Z,987.12
2019-02-10T07:41:06.398Z,987.06
2019-02-10T07:42:06.391Z,987.00
2019-02-10T07:43:06.379Z,987.14
2019-02-10T07:44:06.355Z,987.00
2019-02-10T07:45:06.344Z,986.92
2019-02-10T07:46:06.358Z,986.93
2019-02-10T07:47:06.326Z,986.88
2019-02-10T07:48:06.315Z,986.93
2019-02-10T07:49:06.308Z,986.93
2019-02-10T07:50:06.286Z,986.89
2019-02-10T07:51:06.283Z,986.88
2019-02-10T07:52:06.265Z,986.83
2019-02-10T07:53:06.252Z,986.93
2019-02-10T07:54:06.238Z,986.88
2019-02-10T07:55:06.317Z,986.91
2019-02-10T07:56:06.224Z,986.88
2019-02-10T07:57:06.273Z,986.86
2019-02-10T07:58:06.195Z,986.92
2019-02-10T07:59:06.187Z,986.89
2019-02-10T08:00:06.169Z,986.94
2019-02-10T08:01:06.213Z,986.97
2019-02-10T08:02:06.179Z,986.85
2019-02-10T08:03:06.143Z,986.89
2019-02-10T08:04:06.131Z,986.92
2019-02-10T08:05:06.123Z,986.91
2019-02-10T08:06:06.111Z,986.87
2019-02-10T08:07:06.105Z,986.84
2019-02-10T08:08:06.087Z,986.90
2019-02-10T08:09:06.071Z,986.88
2019-02-10T08:10:06.073Z,986.78
2019-02-10T08:11:06.084Z,986.76
2019-02-10T08:12:06.063Z,986.71
2019-02-10T08:13:06.026Z,986.65
2019-02-10T08:14:06.016Z,986.64
2019-02-10T08:15:06.003Z,986.82
2019-02-10T08:16:05.992Z,986.55
2019-02-10T08:17:05.997Z,986.65
2019-02-10T08:18:06.028Z,986.61
2019-02-10T08:19:05.972Z,986.63
2019-02-10T08:20:05.957Z,986.57
2019-02-10T08:21:05.936Z,986.60
2019-02-10T08:22:05.945Z,986.59
2019-02-10T08:23:05.911Z,986.48
2019-02-10T08:24:05.920Z,986.53
2019-02-10T08:25:05.981Z,986.51
2019-02-10T08:26:05.897Z,986.44
2019-02-10T08:27:05.883Z,986.42
2019-02-10T08:28:05.856Z,986.46
2019-02-10T08:29:05.849Z,986.38
2019-02-10T08:30:05.867Z,986.34
2019-02-10T08:31:05.841Z,986.38
2019-02-10T08:32:05.826Z,986.25
2019-02-10T08:33:05.833Z,986.22
2019-02-10T08:34:05.794Z,986.22
2019-02-10T08:35:05.776Z,986.31
2019-02-10T08:36:05.790Z,986.34
2019-02-10T08:37:05.763Z,986.30
2019-02-10T08:38:05.745Z,986.24
2019-02-10T08:39:05.748Z,986.21
2019-02-10T08:40:05.724Z,986.24
2019-02-10T08:41:05.739Z,986.18
2019-02-10T08:42:05.749Z,986.17
2019-02-10T08:43:05.704Z,986.17
2019-02-10T08:44:05.683Z,986.18
2019-02-10T08:45:05.678Z,986.15
2019-02-10T08:46:05.656Z,986.17
2019-02-10T08:47:05.678Z,986.17
2019-02-10T08:48:05.654Z,986.17
2019-02-10T08:49:05.632Z,986.13
2019-02-10T08:50:05.623Z,986.13
2019-02-10T08:51:05.597Z,986.14
2019-02-10T08:52:05.621Z,986.19
2019-02-10T08:53:05.573Z,986.09
2019-02-10T08:54:05.561Z,986.13
2019-02-10T08:55:05.611Z,986.07
2019-02-10T08:56:05.551Z,986.09
2019-02-10T08:57:05.570Z,986.02
2019-02-10T08:58:05.531Z,986.02
2019-02-10T08:59:05.509Z,986.05
2019-02-10T09:00:05.497Z,986.04
2019-02-10T09:01:05.493Z,985.98
2019-02-10T09:02:05.477Z,985.99
2019-02-10T09:03:05.529Z,985.97
2019-02-10T09:04:05.450Z,985.96
2019-02-10T09:05:05.441Z,985.90
2019-02-10T09:06:05.432Z,985.90
2019-02-10T09:07:05.426Z,985.79
2019-02-10T09:08:05.454Z,985.88
2019-02-10T09:09:05.408Z,985.82
2019-02-10T09:10:05.401Z,985.79
2019-02-10T09:11:05.371Z,985.73
2019-02-10T09:12:05.361Z,985.76
2019-02-10T09:13:05.361Z,985.74
2019-02-10T09:14:05.370Z,985.69
2019-02-10T09:15:05.393Z,985.69
2019-02-10T09:16:05.321Z,985.67
2019-02-10T09:17:05.307Z,985.77
2019-02-10T09:18:05.306Z,985.70
2019-02-10T09:19:05.290Z,985.67
2019-02-10T09:20:05.273Z,985.66
2019-02-10T09:21:05.260Z,985.59
2019-02-10T09:22:05.278Z,985.53
2019-02-10T09:23:05.247Z,985.59
2019-02-10T09:24:05.229Z,985.61
2019-02-10T09:25:05.333Z,985.57
2019-02-10T09:26:05.204Z,985.57
2019-02-10T09:27:05.241Z,985.50
2019-02-10T09:28:05.197Z,985.50
2019-02-10T09:29:05.172Z,985.52
2019-02-10T09:30:05.158Z,985.52
2019-02-10T09:31:05.176Z,985.51
2019-02-10T09:32:05.137Z,985.54
2019-02-10T09:33:05.208Z,985.50
2019-02-10T09:34:05.128Z,985.49
2019-02-10T09:35:05.141Z,985.46
2019-02-10T09:36:05.093Z,985.49
2019-02-10T09:37:05.079Z,985.42
2019-02-10T09:38:05.080Z,985.38
2019-02-10T09:39:10.579Z,985.47
2019-02-10T09:40:06.068Z,985.42
2019-02-10T09:41:05.051Z,985.39
2019-02-10T09:42:05.023Z,985.43
2019-02-10T09:43:05.046Z,985.40
2019-02-10T09:44:05.005Z,985.39
2019-02-10T09:45:04.988Z,985.42
2019-02-10T09:46:04.998Z,985.36
2019-02-10T09:47:04.997Z,985.38
2019-02-10T09:48:04.967Z,985.30
2019-02-10T09:49:04.961Z,985.37
2019-02-10T09:50:04.945Z,985.34
2019-02-10T09:51:04.929Z,985.36
2019-02-10T09:52:04.911Z,985.33
2019-02-10T09:53:04.901Z,985.38
2019-02-10T09:54:04.931Z,985.28
2019-02-10T09:55:04.978Z,985.28
2019-02-10T09:56:04.874Z,985.22
2019-02-10T09:57:04.886Z,985.24
2019-02-10T09:58:04.857Z,985.24
2019-02-10T09:59:04.864Z,985.21
2019-02-10T10:00:04.832Z,985.19
2019-02-10T10:01:04.857Z,985.26
2019-02-10T10:02:04.821Z,985.23
2019-02-10T10:03:04.788Z,985.20
2019-02-10T10:04:04.786Z,985.14
2019-02-10T10:05:04.790Z,985.18
2019-02-10T10:06:04.787Z,985.16
2019-02-10T10:07:04.780Z,985.10
2019-02-10T10:08:04.731Z,985.15
2019-02-10T10:09:04.792Z,985.13
2019-02-10T10:10:04.706Z,985.12
2019-02-10T10:11:04.703Z,985.14
2019-02-10T10:12:04.686Z,985.12
2019-02-10T10:13:04.676Z,985.09
2019-02-10T10:14:04.693Z,985.08
2019-02-10T10:15:04.663Z,985.06
2019-02-10T10:16:04.658Z,985.07
2019-02-10T10:17:04.638Z,985.07
2019-02-10T10:18:04.666Z,985.05
2019-02-10T10:19:04.609Z,985.11
2019-02-10T10:20:04.605Z,985.10
2019-02-10T10:21:04.587Z,985.05
2019-02-10T10:22:04.773Z,985.07
2019-02-10T10:23:04.565Z,985.03
2019-02-10T10:24:04.722Z,985.04
2019-02-10T10:25:04.773Z,985.10
2019-02-10T10:26:04.534Z,984.99
2019-02-10T10:27:04.525Z,985.04
2019-02-10T10:28:04.510Z,985.05
2019-02-10T10:29:04.501Z,984.95
2019-02-10T10:30:04.495Z,985.02
2019-02-10T10:31:04.480Z,984.93
2019-02-10T10:32:04.493Z,984.96
2019-02-10T10:33:04.465Z,984.97
2019-02-10T10:34:04.506Z,984.95
2019-02-10T10:35:04.465Z,984.89
2019-02-10T10:36:04.421Z,984.99
2019-02-10T10:37:04.435Z,984.97
2019-02-10T10:38:04.414Z,984.93
2019-02-10T10:39:04.382Z,984.93
2019-02-10T10:40:04.428Z,984.99
2019-02-10T10:41:04.442Z,984.94
2019-02-10T10:42:04.383Z,984.96
2019-02-10T10:43:04.336Z,984.99
2019-02-10T10:44:04.428Z,985.01
2019-02-10T10:45:04.335Z,984.98
2019-02-10T10:46:04.354Z,985.04
2019-02-10T10:47:04.294Z,985.03
2019-02-10T10:48:04.409Z,985.01
2019-02-10T10:49:04.272Z,985.03
2019-02-10T10:50:04.318Z,984.99
2019-02-10T10:51:04.333Z,984.95
2019-02-10T10:52:04.251Z,985.01
2019-02-10T10:53:04.227Z,985.02
2019-02-10T10:54:04.233Z,984.97
2019-02-10T10:55:04.254Z,985.06
2019-02-10T10:56:04.197Z,984.99
2019-02-10T10:57:04.274Z,984.98
2019-02-10T10:58:04.168Z,985.00
2019-02-10T10:59:04.348Z,985.03
2019-02-10T11:00:04.161Z,985.01
2019-02-10T11:01:04.138Z,984.97
2019-02-10T11:02:04.180Z,985.02
2019-02-10T11:03:04.114Z,984.95
2019-02-10T11:04:04.109Z,985.01
2019-02-10T11:05:04.103Z,984.93
2019-02-10T11:06:04.088Z,984.95
2019-02-10T11:07:04.177Z,984.91
2019-02-10T11:08:04.084Z,985.00
2019-02-10T11:09:04.049Z,984.97
2019-02-10T11:10:04.072Z,984.97
2019-02-10T11:11:04.040Z,984.91
2019-02-10T11:12:04.011Z,984.90
2019-02-10T11:13:04.024Z,984.91
2019-02-10T11:14:03.990Z,984.96
2019-02-10T11:15:04.014Z,985.00
2019-02-10T11:16:03.977Z,985.02
2019-02-10T11:17:03.957Z,984.97
2019-02-10T11:18:03.966Z,985.02
2019-02-10T11:19:03.995Z,984.97
2019-02-10T11:20:03.939Z,984.93
2019-02-10T11:21:03.914Z,984.93
2019-02-10T11:22:03.931Z,984.91
2019-02-10T11:23:03.929Z,984.99
2019-02-10T11:24:03.875Z,984.97
2019-02-10T11:25:04.092Z,985.00
2019-02-10T11:26:03.934Z,984.98
2019-02-10T11:27:03.847Z,984.98
2019-02-10T11:28:03.842Z,985.01
2019-02-10T11:29:03.824Z,984.94
2019-02-10T11:30:04.044Z,984.92
2019-02-10T11:31:03.811Z,984.93
2019-02-10T11:32:03.849Z,984.90
2019-02-10T11:33:03.780Z,984.93
2019-02-10T11:34:03.764Z,984.96
2019-02-10T11:35:03.756Z,984.92
2019-02-10T11:36:03.753Z,984.94
2019-02-10T11:37:03.730Z,984.94
2019-02-10T11:38:03.732Z,984.97
2019-02-10T11:39:03.741Z,984.97
2019-02-10T11:40:03.698Z,984.92
2019-02-10T11:41:03.698Z,984.93
2019-02-10T11:42:03.677Z,984.95
2019-02-10T11:43:03.669Z,984.93
2019-02-10T11:44:03.651Z,984.97
2019-02-10T11:45:03.655Z,984.94
2019-02-10T11:46:03.667Z,984.89
2019-02-10T11:47:03.628Z,984.91
2019-02-10T11:48:03.606Z,984.92
2019-02-10T11:49:03.604Z,984.93
2019-02-10T11:50:03.585Z,984.87
2019-02-10T11:51:03.585Z,984.88
2019-02-10T11:52:03.584Z,984.86
2019-02-10T11:53:03.553Z,984.81
2019-02-10T11:54:03.551Z,984.71
2019-02-10T11:55:03.632Z,984.70
2019-02-10T11:56:03.527Z,984.69
2019-02-10T11:57:03.538Z,984.73
2019-02-10T11:58:03.549Z,984.74
2019-02-10T11:59:03.492Z,984.81
2019-02-10T12:00:03.474Z,984.80
2019-02-10T12:01:03.519Z,984.82
2019-02-10T12:02:03.453Z,984.82
2019-02-10T12:03:03.439Z,984.83
2019-02-10T12:04:03.438Z,984.83
2019-02-10T12:05:03.423Z,984.88
2019-02-10T12:06:03.416Z,984.85
2019-02-10T12:07:03.394Z,984.85
2019-02-10T12:08:03.390Z,984.99
2019-02-10T12:09:03.383Z,984.82
2019-02-10T12:10:03.394Z,984.84
2019-02-10T12:11:03.360Z,984.86
2019-02-10T12:12:03.345Z,984.89
2019-02-10T12:13:03.328Z,984.83
2019-02-10T12:14:03.324Z,984.88
2019-02-10T12:15:03.316Z,984.82
2019-02-10T12:16:03.317Z,984.79
2019-02-10T12:17:03.280Z,984.86
2019-02-10T12:18:03.269Z,984.89
2019-02-10T12:19:03.258Z,984.82
2019-02-10T12:20:03.246Z,984.83
2019-02-10T12:21:03.256Z,984.85
2019-02-10T12:22:03.247Z,984.83
2019-02-10T12:23:03.221Z,984.86
2019-02-10T12:24:03.215Z,984.92
2019-02-10T12:25:03.270Z,984.86
2019-02-10T12:26:03.201Z,984.89
2019-02-10T12:27:03.178Z,984.88